sensor_id;sensor_type;location;lat;lon;timestamp;P1;durP1;ratioP1;P2;durP2;ratioP2
18114;SDS011;9184;54.390;18.620;2023-04-25T00:00:21;8.05;;;6.38;;
18114;SDS011;9184;54.390;18.620;2023-04-25T00:00:51;8.35;;;6.35;;
18114;SDS011;9184;54.390;18.620;2023-04-25T00:01:23;7.60;;;6.78;;
18114;SDS011;9184;54.390;18.620;2023-04-25T00:01:54;8.73;;;7.30;;
18114;SDS011;9184;54.390;18.620;2023-04-25T00:02:24;6.90;;;6.15;;
18114;SDS011;9184;54.390;18.620;2023-04-25T00:02:56;10.73;;;7.10;;
18114;SDS011;9184;54.390;18.620;2023-04-25T00:03:26;7.07;;;6.38;;
18114;SDS011;9184;54.390;18.620;2023-04-25T00:03:57;7.82;;;5.70;;
18114;SDS011;9184;54.390;18.620;2023-04-25T00:04:28;7.05;;;5.85;;
18114;SDS011;9184;54.390;18.620;2023-04-25T00:04:59;6.75;;;5.63;;
18114;SDS011;9184;54.390;18.620;2023-04-25T00:05:30;7.43;;;5.53;;
18114;SDS011;9184;54.390;18.620;2023-04-25T00:06:01;7.15;;;5.80;;
18114;SDS011;9184;54.390;18.620;2023-04-25T00:06:32;7.25;;;5.78;;
18114;SDS011;9184;54.390;18.620;2023-04-25T00:07:04;5.93;;;5.03;;
18114;SDS011;9184;54.390;18.620;2023-04-25T00:07:35;7.43;;;6.15;;
18114;SDS011;9184;54.390;18.620;2023-04-25T00:08:07;6.68;;;5.43;;
18114;SDS011;9184;54.390;18.620;2023-04-25T00:08:37;10.77;;;6.13;;
18114;SDS011;9184;54.390;18.620;2023-04-25T00:09:08;7.80;;;5.78;;
18114;SDS011;9184;54.390;18.620;2023-04-25T00:09:41;11.20;;;7.00;;
18114;SDS011;9184;54.390;18.620;2023-04-25T00:10:11;7.55;;;6.15;;
18114;SDS011;9184;54.390;18.620;2023-04-25T00:10:42;7.50;;;5.40;;
18114;SDS011;9184;54.390;18.620;2023-04-25T00:11:13;9.35;;;6.45;;
18114;SDS011;9184;54.390;18.620;2023-04-25T00:11:44;7.40;;;5.97;;
18114;SDS011;9184;54.390;18.620;2023-04-25T00:12:14;8.05;;;5.88;;
18114;SDS011;9184;54.390;18.620;2023-04-25T00:12:45;6.60;;;6.00;;
18114;SDS011;9184;54.390;18.620;2023-04-25T00:13:17;8.45;;;5.82;;
18114;SDS011;9184;54.390;18.620;2023-04-25T00:13:49;8.27;;;6.07;;
18114;SDS011;9184;54.390;18.620;2023-04-25T00:14:20;7.20;;;6.47;;
18114;SDS011;9184;54.390;18.620;2023-04-25T00:14:52;8.50;;;5.53;;
18114;SDS011;9184;54.390;18.620;2023-04-25T00:15:23;7.13;;;5.93;;
18114;SDS011;9184;54.390;18.620;2023-04-25T00:15:54;8.43;;;6.35;;
18114;SDS011;9184;54.390;18.620;2023-04-25T00:16:26;8.77;;;6.40;;
18114;SDS011;9184;54.390;18.620;2023-04-25T00:16:58;7.53;;;6.35;;
18114;SDS011;9184;54.390;18.620;2023-04-25T00:17:29;6.63;;;5.78;;
18114;SDS011;9184;54.390;18.620;2023-04-25T00:18:01;8.32;;;6.07;;
18114;SDS011;9184;54.390;18.620;2023-04-25T00:18:31;6.78;;;6.07;;
18114;SDS011;9184;54.390;18.620;2023-04-25T00:19:03;9.95;;;5.90;;
18114;SDS011;9184;54.390;18.620;2023-04-25T00:19:33;6.15;;;5.63;;
18114;SDS011;9184;54.390;18.620;2023-04-25T00:20:05;6.38;;;5.40;;
18114;SDS011;9184;54.390;18.620;2023-04-25T00:20:39;6.32;;;5.72;;
18114;SDS011;9184;54.390;18.620;2023-04-25T00:21:10;6.10;;;5.22;;
18114;SDS011;9184;54.390;18.620;2023-04-25T00:21:41;7.65;;;5.72;;
18114;SDS011;9184;54.390;18.620;2023-04-25T00:22:13;5.85;;;5.25;;
18114;SDS011;9184;54.390;18.620;2023-04-25T00:22:44;5.95;;;5.43;;
18114;SDS011;9184;54.390;18.620;2023-04-25T00:23:15;5.57;;;5.07;;
18114;SDS011;9184;54.390;18.620;2023-04-25T00:23:48;7.28;;;6.00;;
18114;SDS011;9184;54.390;18.620;2023-04-25T00:24:19;8.60;;;5.80;;
18114;SDS011;9184;54.390;18.620;2023-04-25T00:24:50;10.65;;;6.03;;
18114;SDS011;9184;54.390;18.620;2023-04-25T00:25:23;5.72;;;4.80;;
18114;SDS011;9184;54.390;18.620;2023-04-25T00:25:54;6.47;;;5.88;;
18114;SDS011;9184;54.390;18.620;2023-04-25T00:26:25;6.65;;;5.45;;
18114;SDS011;9184;54.390;18.620;2023-04-25T00:26:55;6.50;;;5.80;;
18114;SDS011;9184;54.390;18.620;2023-04-25T00:27:27;5.82;;;5.13;;
18114;SDS011;9184;54.390;18.620;2023-04-25T00:27:57;5.90;;;5.30;;
18114;SDS011;9184;54.390;18.620;2023-04-25T00:28:28;7.10;;;5.93;;
18114;SDS011;9184;54.390;18.620;2023-04-25T00:28:59;6.07;;;5.20;;
18114;SDS011;9184;54.390;18.620;2023-04-25T00:29:30;5.65;;;5.05;;
18114;SDS011;9184;54.390;18.620;2023-04-25T00:30:00;8.00;;;5.50;;
18114;SDS011;9184;54.390;18.620;2023-04-25T00:30:32;8.75;;;5.55;;
18114;SDS011;9184;54.390;18.620;2023-04-25T00:31:03;7.47;;;6.30;;
18114;SDS011;9184;54.390;18.620;2023-04-25T00:31:33;8.38;;;5.28;;
18114;SDS011;9184;54.390;18.620;2023-04-25T00:32:05;6.30;;;5.70;;
18114;SDS011;9184;54.390;18.620;2023-04-25T00:32:35;5.72;;;5.15;;
18114;SDS011;9184;54.390;18.620;2023-04-25T00:33:06;7.68;;;5.53;;
18114;SDS011;9184;54.390;18.620;2023-04-25T00:33:37;6.72;;;5.78;;
18114;SDS011;9184;54.390;18.620;2023-04-25T00:34:08;6.40;;;5.13;;
18114;SDS011;9184;54.390;18.620;2023-04-25T00:34:38;7.03;;;5.95;;
18114;SDS011;9184;54.390;18.620;2023-04-25T00:35:10;6.78;;;5.85;;
18114;SDS011;9184;54.390;18.620;2023-04-25T00:35:40;8.52;;;5.70;;
18114;SDS011;9184;54.390;18.620;2023-04-25T00:36:11;6.50;;;5.53;;
18114;SDS011;9184;54.390;18.620;2023-04-25T00:36:41;6.75;;;4.97;;
18114;SDS011;9184;54.390;18.620;2023-04-25T00:37:14;6.57;;;5.15;;
18114;SDS011;9184;54.390;18.620;2023-04-25T00:37:44;5.75;;;4.90;;
18114;SDS011;9184;54.390;18.620;2023-04-25T00:38:15;6.28;;;5.60;;
18114;SDS011;9184;54.390;18.620;2023-04-25T00:38:47;5.18;;;4.68;;
18114;SDS011;9184;54.390;18.620;2023-04-25T00:39:17;5.68;;;5.05;;
18114;SDS011;9184;54.390;18.620;2023-04-25T00:39:48;7.38;;;4.85;;
18114;SDS011;9184;54.390;18.620;2023-04-25T00:40:19;7.32;;;5.65;;
18114;SDS011;9184;54.390;18.620;2023-04-25T00:40:50;5.75;;;5.00;;
18114;SDS011;9184;54.390;18.620;2023-04-25T00:41:20;5.43;;;4.93;;
18114;SDS011;9184;54.390;18.620;2023-04-25T00:41:52;8.57;;;5.28;;
18114;SDS011;9184;54.390;18.620;2023-04-25T00:42:24;7.10;;;5.72;;
18114;SDS011;9184;54.390;18.620;2023-04-25T00:42:55;6.32;;;5.05;;
18114;SDS011;9184;54.390;18.620;2023-04-25T00:43:26;5.88;;;5.22;;
18114;SDS011;9184;54.390;18.620;2023-04-25T00:43:57;6.57;;;5.50;;
18114;SDS011;9184;54.390;18.620;2023-04-25T00:44:28;7.45;;;5.53;;
18114;SDS011;9184;54.390;18.620;2023-04-25T00:45:00;6.28;;;4.93;;
18114;SDS011;9184;54.390;18.620;2023-04-25T00:45:31;7.13;;;5.13;;
18114;SDS011;9184;54.390;18.620;2023-04-25T00:46:01;8.57;;;5.85;;
18114;SDS011;9184;54.390;18.620;2023-04-25T00:46:32;7.32;;;5.43;;
18114;SDS011;9184;54.390;18.620;2023-04-25T00:47:03;7.00;;;5.43;;
18114;SDS011;9184;54.390;18.620;2023-04-25T00:47:35;6.72;;;5.57;;
18114;SDS011;9184;54.390;18.620;2023-04-25T00:48:07;6.00;;;5.35;;
18114;SDS011;9184;54.390;18.620;2023-04-25T00:48:37;6.93;;;5.28;;
18114;SDS011;9184;54.390;18.620;2023-04-25T00:49:08;5.60;;;5.03;;
18114;SDS011;9184;54.390;18.620;2023-04-25T00:49:45;7.22;;;5.38;;
18114;SDS011;9184;54.390;18.620;2023-04-25T00:50:15;8.95;;;5.60;;
18114;SDS011;9184;54.390;18.620;2023-04-25T00:50:49;5.55;;;4.70;;
18114;SDS011;9184;54.390;18.620;2023-04-25T00:51:22;5.95;;;4.88;;
18114;SDS011;9184;54.390;18.620;2023-04-25T00:51:52;6.57;;;5.15;;
18114;SDS011;9184;54.390;18.620;2023-04-25T00:52:24;6.38;;;4.82;;
18114;SDS011;9184;54.390;18.620;2023-04-25T00:52:57;4.43;;;3.97;;
18114;SDS011;9184;54.390;18.620;2023-04-25T00:53:28;5.13;;;4.30;;
18114;SDS011;9184;54.390;18.620;2023-04-25T00:53:59;6.95;;;5.25;;
18114;SDS011;9184;54.390;18.620;2023-04-25T00:54:31;6.07;;;5.30;;
18114;SDS011;9184;54.390;18.620;2023-04-25T00:55:02;6.80;;;4.20;;
18114;SDS011;9184;54.390;18.620;2023-04-25T00:55:32;6.43;;;5.22;;
18114;SDS011;9184;54.390;18.620;2023-04-25T00:56:06;4.57;;;4.13;;
18114;SDS011;9184;54.390;18.620;2023-04-25T00:56:36;6.68;;;5.30;;
18114;SDS011;9184;54.390;18.620;2023-04-25T00:57:07;7.43;;;4.65;;
18114;SDS011;9184;54.390;18.620;2023-04-25T00:57:39;6.20;;;5.07;;
18114;SDS011;9184;54.390;18.620;2023-04-25T00:58:10;5.75;;;4.78;;
18114;SDS011;9184;54.390;18.620;2023-04-25T00:58:41;6.32;;;5.13;;
18114;SDS011;9184;54.390;18.620;2023-04-25T00:59:12;5.75;;;5.07;;
18114;SDS011;9184;54.390;18.620;2023-04-25T00:59:44;4.97;;;4.47;;
18114;SDS011;9184;54.390;18.620;2023-04-25T01:00:15;7.20;;;5.10;;
18114;SDS011;9184;54.390;18.620;2023-04-25T01:00:47;6.45;;;4.82;;
18114;SDS011;9184;54.390;18.620;2023-04-25T01:01:18;5.93;;;4.53;;
18114;SDS011;9184;54.390;18.620;2023-04-25T01:01:49;5.00;;;4.50;;
18114;SDS011;9184;54.390;18.620;2023-04-25T01:02:21;5.25;;;4.75;;
18114;SDS011;9184;54.390;18.620;2023-04-25T01:02:51;4.40;;;4.00;;
18114;SDS011;9184;54.390;18.620;2023-04-25T01:03:22;6.95;;;5.13;;
18114;SDS011;9184;54.390;18.620;2023-04-25T01:03:54;6.93;;;4.93;;
18114;SDS011;9184;54.390;18.620;2023-04-25T01:04:24;5.72;;;4.97;;
18114;SDS011;9184;54.390;18.620;2023-04-25T01:04:56;6.15;;;4.85;;
18114;SDS011;9184;54.390;18.620;2023-04-25T01:05:26;5.18;;;4.70;;
18114;SDS011;9184;54.390;18.620;2023-04-25T01:05:57;5.25;;;4.75;;
18114;SDS011;9184;54.390;18.620;2023-04-25T01:06:28;6.28;;;4.93;;
18114;SDS011;9184;54.390;18.620;2023-04-25T01:06:58;6.35;;;5.03;;
18114;SDS011;9184;54.390;18.620;2023-04-25T01:07:31;7.20;;;5.45;;
18114;SDS011;9184;54.390;18.620;2023-04-25T01:08:02;5.60;;;5.00;;
18114;SDS011;9184;54.390;18.620;2023-04-25T01:08:33;7.40;;;5.50;;
18114;SDS011;9184;54.390;18.620;2023-04-25T01:09:04;6.57;;;5.72;;
18114;SDS011;9184;54.390;18.620;2023-04-25T01:09:35;5.55;;;5.05;;
18114;SDS011;9184;54.390;18.620;2023-04-25T01:10:06;6.95;;;5.60;;
18114;SDS011;9184;54.390;18.620;2023-04-25T01:10:37;6.40;;;5.60;;
18114;SDS011;9184;54.390;18.620;2023-04-25T01:11:08;8.02;;;5.68;;
18114;SDS011;9184;54.390;18.620;2023-04-25T01:11:39;6.70;;;5.25;;
18114;SDS011;9184;54.390;18.620;2023-04-25T01:12:10;7.88;;;5.57;;
18114;SDS011;9184;54.390;18.620;2023-04-25T01:12:40;5.72;;;5.15;;
18114;SDS011;9184;54.390;18.620;2023-04-25T01:13:12;6.78;;;4.88;;
18114;SDS011;9184;54.390;18.620;2023-04-25T01:13:43;6.20;;;5.00;;
18114;SDS011;9184;54.390;18.620;2023-04-25T01:14:13;6.03;;;5.45;;
18114;SDS011;9184;54.390;18.620;2023-04-25T01:14:45;5.68;;;5.07;;
18114;SDS011;9184;54.390;18.620;2023-04-25T01:15:16;6.22;;;5.57;;
18114;SDS011;9184;54.390;18.620;2023-04-25T01:15:46;7.20;;;5.82;;
18114;SDS011;9184;54.390;18.620;2023-04-25T01:16:18;7.10;;;5.47;;
18114;SDS011;9184;54.390;18.620;2023-04-25T01:16:49;5.60;;;5.10;;
18114;SDS011;9184;54.390;18.620;2023-04-25T01:17:19;6.32;;;5.72;;
18114;SDS011;9184;54.390;18.620;2023-04-25T01:17:51;8.02;;;5.93;;
18114;SDS011;9184;54.390;18.620;2023-04-25T01:18:23;6.85;;;5.63;;
18114;SDS011;9184;54.390;18.620;2023-04-25T01:18:53;6.68;;;5.35;;
18114;SDS011;9184;54.390;18.620;2023-04-25T01:19:25;5.90;;;4.97;;
18114;SDS011;9184;54.390;18.620;2023-04-25T01:19:56;6.70;;;5.75;;
18114;SDS011;9184;54.390;18.620;2023-04-25T01:20:26;6.20;;;5.60;;
18114;SDS011;9184;54.390;18.620;2023-04-25T01:21:02;6.07;;;5.47;;
18114;SDS011;9184;54.390;18.620;2023-04-25T01:21:36;7.93;;;5.38;;
18114;SDS011;9184;54.390;18.620;2023-04-25T01:22:06;7.00;;;5.38;;
18114;SDS011;9184;54.390;18.620;2023-04-25T01:22:40;8.93;;;5.47;;
18114;SDS011;9184;54.390;18.620;2023-04-25T01:23:10;8.80;;;5.15;;
18114;SDS011;9184;54.390;18.620;2023-04-25T01:23:41;7.20;;;5.35;;
18114;SDS011;9184;54.390;18.620;2023-04-25T01:24:12;6.15;;;5.55;;
18114;SDS011;9184;54.390;18.620;2023-04-25T01:24:43;8.32;;;5.72;;
18114;SDS011;9184;54.390;18.620;2023-04-25T01:25:14;8.10;;;5.68;;
18114;SDS011;9184;54.390;18.620;2023-04-25T01:25:45;6.47;;;5.35;;
18114;SDS011;9184;54.390;18.620;2023-04-25T01:26:16;6.53;;;5.05;;
18114;SDS011;9184;54.390;18.620;2023-04-25T01:26:47;8.55;;;5.57;;
18114;SDS011;9184;54.390;18.620;2023-04-25T01:27:20;7.30;;;6.05;;
18114;SDS011;9184;54.390;18.620;2023-04-25T01:27:51;7.05;;;5.20;;
18114;SDS011;9184;54.390;18.620;2023-04-25T01:28:22;13.45;;;6.10;;
18114;SDS011;9184;54.390;18.620;2023-04-25T01:28:52;6.65;;;5.38;;
18114;SDS011;9184;54.390;18.620;2023-04-25T01:29:24;6.88;;;5.25;;
18114;SDS011;9184;54.390;18.620;2023-04-25T01:29:55;11.00;;;5.90;;
18114;SDS011;9184;54.390;18.620;2023-04-25T01:30:26;7.03;;;6.05;;
18114;SDS011;9184;54.390;18.620;2023-04-25T01:30:57;7.78;;;5.53;;
18114;SDS011;9184;54.390;18.620;2023-04-25T01:31:28;7.82;;;5.57;;
18114;SDS011;9184;54.390;18.620;2023-04-25T01:32:00;7.75;;;5.80;;
18114;SDS011;9184;54.390;18.620;2023-04-25T01:32:31;6.03;;;5.43;;
18114;SDS011;9184;54.390;18.620;2023-04-25T01:33:08;7.68;;;5.60;;
18114;SDS011;9184;54.390;18.620;2023-04-25T01:33:38;7.95;;;5.80;;
18114;SDS011;9184;54.390;18.620;2023-04-25T01:34:09;8.07;;;5.93;;
18114;SDS011;9184;54.390;18.620;2023-04-25T01:34:40;6.03;;;5.38;;
18114;SDS011;9184;54.390;18.620;2023-04-25T01:35:11;6.57;;;5.82;;
18114;SDS011;9184;54.390;18.620;2023-04-25T01:35:42;6.60;;;5.38;;
18114;SDS011;9184;54.390;18.620;2023-04-25T01:36:14;7.20;;;6.05;;
18114;SDS011;9184;54.390;18.620;2023-04-25T01:36:45;7.22;;;5.85;;
18114;SDS011;9184;54.390;18.620;2023-04-25T01:37:17;6.97;;;5.85;;
18114;SDS011;9184;54.390;18.620;2023-04-25T01:37:48;7.13;;;6.20;;
18114;SDS011;9184;54.390;18.620;2023-04-25T01:38:19;7.35;;;6.22;;
18114;SDS011;9184;54.390;18.620;2023-04-25T01:38:50;7.40;;;5.85;;
18114;SDS011;9184;54.390;18.620;2023-04-25T01:39:22;10.55;;;6.43;;
18114;SDS011;9184;54.390;18.620;2023-04-25T01:39:53;8.07;;;6.28;;
18114;SDS011;9184;54.390;18.620;2023-04-25T01:40:24;7.20;;;5.43;;
18114;SDS011;9184;54.390;18.620;2023-04-25T01:40:56;6.75;;;5.70;;
18114;SDS011;9184;54.390;18.620;2023-04-25T01:41:26;8.35;;;6.22;;
18114;SDS011;9184;54.390;18.620;2023-04-25T01:41:57;6.32;;;5.47;;
18114;SDS011;9184;54.390;18.620;2023-04-25T01:42:28;8.15;;;5.70;;
18114;SDS011;9184;54.390;18.620;2023-04-25T01:42:59;10.57;;;6.75;;
18114;SDS011;9184;54.390;18.620;2023-04-25T01:43:29;9.88;;;6.45;;
18114;SDS011;9184;54.390;18.620;2023-04-25T01:44:00;6.93;;;6.22;;
18114;SDS011;9184;54.390;18.620;2023-04-25T01:44:32;8.10;;;5.85;;
18114;SDS011;9184;54.390;18.620;2023-04-25T01:45:02;7.25;;;6.03;;
18114;SDS011;9184;54.390;18.620;2023-04-25T01:45:33;8.35;;;6.30;;
18114;SDS011;9184;54.390;18.620;2023-04-25T01:46:06;7.90;;;5.75;;
18114;SDS011;9184;54.390;18.620;2023-04-25T01:46:36;8.88;;;5.95;;
18114;SDS011;9184;54.390;18.620;2023-04-25T01:47:07;7.10;;;5.95;;
18114;SDS011;9184;54.390;18.620;2023-04-25T01:47:38;7.55;;;6.20;;
18114;SDS011;9184;54.390;18.620;2023-04-25T01:48:10;7.50;;;6.63;;
18114;SDS011;9184;54.390;18.620;2023-04-25T01:48:41;5.72;;;5.22;;
18114;SDS011;9184;54.390;18.620;2023-04-25T01:49:12;6.72;;;6.03;;
18114;SDS011;9184;54.390;18.620;2023-04-25T01:49:43;6.78;;;5.95;;
18114;SDS011;9184;54.390;18.620;2023-04-25T01:50:13;8.95;;;5.88;;
18114;SDS011;9184;54.390;18.620;2023-04-25T01:50:45;6.85;;;6.15;;
18114;SDS011;9184;54.390;18.620;2023-04-25T01:51:18;8.73;;;6.38;;
18114;SDS011;9184;54.390;18.620;2023-04-25T01:51:49;7.38;;;6.10;;
18114;SDS011;9184;54.390;18.620;2023-04-25T01:52:20;8.02;;;6.25;;
18114;SDS011;9184;54.390;18.620;2023-04-25T01:52:51;8.52;;;6.53;;
18114;SDS011;9184;54.390;18.620;2023-04-25T01:53:22;8.20;;;6.25;;
18114;SDS011;9184;54.390;18.620;2023-04-25T01:53:52;8.35;;;6.00;;
18114;SDS011;9184;54.390;18.620;2023-04-25T01:54:25;6.63;;;5.97;;
18114;SDS011;9184;54.390;18.620;2023-04-25T01:54:55;8.43;;;6.85;;
18114;SDS011;9184;54.390;18.620;2023-04-25T01:55:27;9.02;;;6.82;;
18114;SDS011;9184;54.390;18.620;2023-04-25T01:55:58;7.68;;;5.95;;
18114;SDS011;9184;54.390;18.620;2023-04-25T01:56:32;6.72;;;6.03;;
18114;SDS011;9184;54.390;18.620;2023-04-25T01:57:03;9.02;;;6.35;;
18114;SDS011;9184;54.390;18.620;2023-04-25T01:57:34;7.15;;;5.70;;
18114;SDS011;9184;54.390;18.620;2023-04-25T01:58:05;7.53;;;6.22;;
18114;SDS011;9184;54.390;18.620;2023-04-25T01:58:39;7.93;;;6.38;;
18114;SDS011;9184;54.390;18.620;2023-04-25T01:59:10;6.35;;;5.60;;
18114;SDS011;9184;54.390;18.620;2023-04-25T01:59:41;7.30;;;6.40;;
18114;SDS011;9184;54.390;18.620;2023-04-25T02:00:12;7.60;;;6.78;;
18114;SDS011;9184;54.390;18.620;2023-04-25T02:00:44;8.30;;;6.22;;
18114;SDS011;9184;54.390;18.620;2023-04-25T02:01:14;6.93;;;6.15;;
18114;SDS011;9184;54.390;18.620;2023-04-25T02:01:45;7.00;;;6.10;;
18114;SDS011;9184;54.390;18.620;2023-04-25T02:02:16;6.53;;;5.88;;
18114;SDS011;9184;54.390;18.620;2023-04-25T02:02:47;6.97;;;6.35;;
18114;SDS011;9184;54.390;18.620;2023-04-25T02:03:20;11.20;;;6.93;;
18114;SDS011;9184;54.390;18.620;2023-04-25T02:03:52;7.47;;;6.47;;
18114;SDS011;9184;54.390;18.620;2023-04-25T02:04:23;8.25;;;6.55;;
18114;SDS011;9184;54.390;18.620;2023-04-25T02:04:54;7.30;;;6.22;;
18114;SDS011;9184;54.390;18.620;2023-04-25T02:05:26;6.43;;;5.85;;
18114;SDS011;9184;54.390;18.620;2023-04-25T02:05:56;7.75;;;6.90;;
18114;SDS011;9184;54.390;18.620;2023-04-25T02:06:28;11.13;;;6.80;;
18114;SDS011;9184;54.390;18.620;2023-04-25T02:07:01;7.00;;;6.30;;
18114;SDS011;9184;54.390;18.620;2023-04-25T02:07:31;6.82;;;6.13;;
18114;SDS011;9184;54.390;18.620;2023-04-25T02:08:04;8.95;;;6.90;;
18114;SDS011;9184;54.390;18.620;2023-04-25T02:08:35;10.02;;;7.03;;
18114;SDS011;9184;54.390;18.620;2023-04-25T02:09:07;8.60;;;6.55;;
18114;SDS011;9184;54.390;18.620;2023-04-25T02:09:38;7.07;;;6.35;;
18114;SDS011;9184;54.390;18.620;2023-04-25T02:10:08;8.25;;;6.07;;
18114;SDS011;9184;54.390;18.620;2023-04-25T02:10:40;7.95;;;6.78;;
18114;SDS011;9184;54.390;18.620;2023-04-25T02:11:11;8.27;;;6.78;;
18114;SDS011;9184;54.390;18.620;2023-04-25T02:11:41;7.30;;;6.60;;
18114;SDS011;9184;54.390;18.620;2023-04-25T02:12:13;8.43;;;6.75;;
18114;SDS011;9184;54.390;18.620;2023-04-25T02:12:43;10.18;;;6.78;;
18114;SDS011;9184;54.390;18.620;2023-04-25T02:13:14;8.80;;;6.22;;
18114;SDS011;9184;54.390;18.620;2023-04-25T02:13:45;7.82;;;6.30;;
18114;SDS011;9184;54.390;18.620;2023-04-25T02:14:16;7.03;;;6.40;;
18114;SDS011;9184;54.390;18.620;2023-04-25T02:14:46;6.70;;;6.00;;
18114;SDS011;9184;54.390;18.620;2023-04-25T02:15:18;14.48;;;6.97;;
18114;SDS011;9184;54.390;18.620;2023-04-25T02:15:48;8.52;;;6.05;;
18114;SDS011;9184;54.390;18.620;2023-04-25T02:16:19;8.98;;;6.00;;
18114;SDS011;9184;54.390;18.620;2023-04-25T02:16:50;7.65;;;6.65;;
18114;SDS011;9184;54.390;18.620;2023-04-25T02:17:21;8.85;;;6.22;;
18114;SDS011;9184;54.390;18.620;2023-04-25T02:17:52;7.68;;;6.88;;
18114;SDS011;9184;54.390;18.620;2023-04-25T02:18:23;8.38;;;6.25;;
18114;SDS011;9184;54.390;18.620;2023-04-25T02:18:56;8.88;;;6.60;;
18114;SDS011;9184;54.390;18.620;2023-04-25T02:19:26;8.25;;;6.95;;
18114;SDS011;9184;54.390;18.620;2023-04-25T02:19:59;7.03;;;6.18;;
18114;SDS011;9184;54.390;18.620;2023-04-25T02:20:29;7.75;;;6.72;;
18114;SDS011;9184;54.390;18.620;2023-04-25T02:21:00;8.80;;;6.50;;
18114;SDS011;9184;54.390;18.620;2023-04-25T02:21:34;6.50;;;5.80;;
18114;SDS011;9184;54.390;18.620;2023-04-25T02:22:05;6.97;;;6.13;;
18114;SDS011;9184;54.390;18.620;2023-04-25T02:22:36;12.65;;;6.78;;
18114;SDS011;9184;54.390;18.620;2023-04-25T02:23:07;7.18;;;6.32;;
18114;SDS011;9184;54.390;18.620;2023-04-25T02:23:38;10.23;;;7.00;;
18114;SDS011;9184;54.390;18.620;2023-04-25T02:24:08;7.60;;;6.70;;
18114;SDS011;9184;54.390;18.620;2023-04-25T02:24:39;7.50;;;6.60;;
18114;SDS011;9184;54.390;18.620;2023-04-25T02:25:11;8.82;;;7.05;;
18114;SDS011;9184;54.390;18.620;2023-04-25T02:25:41;7.57;;;6.75;;
18114;SDS011;9184;54.390;18.620;2023-04-25T02:26:12;7.85;;;7.05;;
18114;SDS011;9184;54.390;18.620;2023-04-25T02:26:44;8.90;;;7.00;;
18114;SDS011;9184;54.390;18.620;2023-04-25T02:27:14;8.18;;;7.00;;
18114;SDS011;9184;54.390;18.620;2023-04-25T02:27:45;7.35;;;6.65;;
18114;SDS011;9184;54.390;18.620;2023-04-25T02:28:17;8.30;;;6.75;;
18114;SDS011;9184;54.390;18.620;2023-04-25T02:28:47;8.82;;;7.07;;
18114;SDS011;9184;54.390;18.620;2023-04-25T02:29:18;9.43;;;6.90;;
18114;SDS011;9184;54.390;18.620;2023-04-25T02:29:49;9.48;;;7.30;;
18114;SDS011;9184;54.390;18.620;2023-04-25T02:30:20;11.65;;;7.20;;
18114;SDS011;9184;54.390;18.620;2023-04-25T02:30:50;10.02;;;7.07;;
18114;SDS011;9184;54.390;18.620;2023-04-25T02:31:22;8.20;;;7.40;;
18114;SDS011;9184;54.390;18.620;2023-04-25T02:31:52;8.15;;;6.95;;
18114;SDS011;9184;54.390;18.620;2023-04-25T02:32:23;7.70;;;6.50;;
18114;SDS011;9184;54.390;18.620;2023-04-25T02:32:54;10.05;;;7.65;;
18114;SDS011;9184;54.390;18.620;2023-04-25T02:33:25;7.72;;;6.78;;
18114;SDS011;9184;54.390;18.620;2023-04-25T02:33:55;9.20;;;7.18;;
18114;SDS011;9184;54.390;18.620;2023-04-25T02:34:27;9.20;;;7.43;;
18114;SDS011;9184;54.390;18.620;2023-04-25T02:34:57;8.55;;;7.25;;
18114;SDS011;9184;54.390;18.620;2023-04-25T02:35:33;9.15;;;7.53;;
18114;SDS011;9184;54.390;18.620;2023-04-25T02:36:05;7.97;;;7.18;;
18114;SDS011;9184;54.390;18.620;2023-04-25T02:36:37;8.48;;;7.68;;
18114;SDS011;9184;54.390;18.620;2023-04-25T02:37:09;9.75;;;8.02;;
18114;SDS011;9184;54.390;18.620;2023-04-25T02:37:40;12.77;;;8.10;;
18114;SDS011;9184;54.390;18.620;2023-04-25T02:38:11;9.82;;;7.35;;
18114;SDS011;9184;54.390;18.620;2023-04-25T02:38:41;12.38;;;7.97;;
18114;SDS011;9184;54.390;18.620;2023-04-25T02:39:13;11.07;;;7.55;;
18114;SDS011;9184;54.390;18.620;2023-04-25T02:39:43;10.88;;;8.10;;
18114;SDS011;9184;54.390;18.620;2023-04-25T02:40:14;8.35;;;7.43;;
18114;SDS011;9184;54.390;18.620;2023-04-25T02:40:45;9.65;;;7.80;;
18114;SDS011;9184;54.390;18.620;2023-04-25T02:41:16;9.38;;;7.80;;
18114;SDS011;9184;54.390;18.620;2023-04-25T02:41:46;9.45;;;8.02;;
18114;SDS011;9184;54.390;18.620;2023-04-25T02:42:18;8.95;;;7.32;;
18114;SDS011;9184;54.390;18.620;2023-04-25T02:42:48;8.13;;;6.85;;
18114;SDS011;9184;54.390;18.620;2023-04-25T02:43:19;10.13;;;7.60;;
18114;SDS011;9184;54.390;18.620;2023-04-25T02:43:50;9.43;;;7.88;;
18114;SDS011;9184;54.390;18.620;2023-04-25T02:44:21;10.27;;;8.40;;
18114;SDS011;9184;54.390;18.620;2023-04-25T02:44:51;9.52;;;7.57;;
18114;SDS011;9184;54.390;18.620;2023-04-25T02:45:22;8.35;;;7.55;;
18114;SDS011;9184;54.390;18.620;2023-04-25T02:45:53;8.63;;;7.75;;
18114;SDS011;9184;54.390;18.620;2023-04-25T02:46:24;9.00;;;8.10;;
18114;SDS011;9184;54.390;18.620;2023-04-25T02:46:54;11.35;;;7.95;;
18114;SDS011;9184;54.390;18.620;2023-04-25T02:47:26;8.90;;;8.00;;
18114;SDS011;9184;54.390;18.620;2023-04-25T02:47:56;12.45;;;8.23;;
18114;SDS011;9184;54.390;18.620;2023-04-25T02:48:28;14.07;;;7.90;;
18114;SDS011;9184;54.390;18.620;2023-04-25T02:48:59;10.70;;;7.75;;
18114;SDS011;9184;54.390;18.620;2023-04-25T02:49:29;8.88;;;7.97;;
18114;SDS011;9184;54.390;18.620;2023-04-25T02:50:00;10.18;;;8.23;;
18114;SDS011;9184;54.390;18.620;2023-04-25T02:50:31;12.05;;;8.57;;
18114;SDS011;9184;54.390;18.620;2023-04-25T02:51:02;11.43;;;7.78;;
18114;SDS011;9184;54.390;18.620;2023-04-25T02:51:32;8.75;;;7.85;;
18114;SDS011;9184;54.390;18.620;2023-04-25T02:52:05;10.95;;;8.02;;
18114;SDS011;9184;54.390;18.620;2023-04-25T02:52:36;11.63;;;8.35;;
18114;SDS011;9184;54.390;18.620;2023-04-25T02:53:06;9.52;;;8.13;;
18114;SDS011;9184;54.390;18.620;2023-04-25T02:53:38;8.43;;;7.50;;
18114;SDS011;9184;54.390;18.620;2023-04-25T02:54:08;8.35;;;7.47;;
18114;SDS011;9184;54.390;18.620;2023-04-25T02:54:39;8.52;;;7.68;;
18114;SDS011;9184;54.390;18.620;2023-04-25T02:55:10;10.18;;;8.50;;
18114;SDS011;9184;54.390;18.620;2023-04-25T02:55:42;9.02;;;8.07;;
18114;SDS011;9184;54.390;18.620;2023-04-25T02:56:12;9.70;;;8.73;;
18114;SDS011;9184;54.390;18.620;2023-04-25T02:56:47;10.45;;;8.52;;
18114;SDS011;9184;54.390;18.620;2023-04-25T02:57:17;9.18;;;7.97;;
18114;SDS011;9184;54.390;18.620;2023-04-25T02:57:48;10.63;;;8.70;;
18114;SDS011;9184;54.390;18.620;2023-04-25T02:58:19;11.13;;;8.32;;
18114;SDS011;9184;54.390;18.620;2023-04-25T02:58:50;10.63;;;8.68;;
18114;SDS011;9184;54.390;18.620;2023-04-25T02:59:20;10.95;;;8.70;;
18114;SDS011;9184;54.390;18.620;2023-04-25T02:59:52;8.90;;;8.00;;
18114;SDS011;9184;54.390;18.620;2023-04-25T03:00:22;11.63;;;8.48;;
18114;SDS011;9184;54.390;18.620;2023-04-25T03:00:53;10.43;;;9.27;;
18114;SDS011;9184;54.390;18.620;2023-04-25T03:01:24;11.60;;;8.23;;
18114;SDS011;9184;54.390;18.620;2023-04-25T03:01:55;11.15;;;9.15;;
18114;SDS011;9184;54.390;18.620;2023-04-25T03:02:25;9.23;;;8.30;;
18114;SDS011;9184;54.390;18.620;2023-04-25T03:02:56;9.05;;;7.90;;
18114;SDS011;9184;54.390;18.620;2023-04-25T03:03:28;9.25;;;8.35;;
18114;SDS011;9184;54.390;18.620;2023-04-25T03:03:59;10.35;;;8.30;;
18114;SDS011;9184;54.390;18.620;2023-04-25T03:04:29;8.38;;;7.45;;
18114;SDS011;9184;54.390;18.620;2023-04-25T03:05:00;8.80;;;7.80;;
18114;SDS011;9184;54.390;18.620;2023-04-25T03:05:33;9.27;;;8.38;;
18114;SDS011;9184;54.390;18.620;2023-04-25T03:06:05;9.65;;;8.63;;
18114;SDS011;9184;54.390;18.620;2023-04-25T03:06:35;10.25;;;8.63;;
18114;SDS011;9184;54.390;18.620;2023-04-25T03:07:08;9.52;;;8.48;;
18114;SDS011;9184;54.390;18.620;2023-04-25T03:07:38;8.48;;;7.68;;